Latest Weather Observations for McCluer Island

IDD60801

Issued at 10:05 pm CST Tuesday 29 July 2014 (issued every 30 minutes, with the page automatically refreshed every 10 minutes)

About weather observations | Map of weather stations | Latest weather observations for NT | Other Formats
Station Details ID: 014274 Name: MCCLUER ISLAND Lat: -11.05 Lon: 132.98 Height: 1.4 m
Data from the previous 72 hours. | See also: Recent months at McCluer Island
Date/Time
CST
Temp
°C
App
Temp
°C
Dew
Point
Rel
Hum
%
Delta-T
°C
Wind Press
QNH
hPa
Press
MSL
hPa
Rain
since 9 am
mm
Dir
 
Spd
km/h
Gust
km/h
Spd
kts
Gust
kts
29/10:00pm 25.7 25.6 24.5 93 0.8 E 33 41 18 22 1014.8 - 0.0
29/09:30pm 25.7 25.0 24.1 91 1.1 E 35 41 19 22 1014.8 - 0.0
29/09:00pm 25.7 25.1 24.3 92 1.0 E 35 39 19 21 1014.7 1014.7 0.0
29/08:30pm 26.0 25.3 24.8 93 0.8 E 37 43 20 23 1014.4 - 0.0
29/08:00pm 25.8 25.0 24.6 93 0.8 E 37 43 20 23 1014.2 - 0.0
29/07:30pm 25.8 25.2 24.4 92 1.0 E 35 43 19 23 1014.0 - 0.0
29/07:00pm 25.7 24.5 23.9 90 1.2 E 37 44 20 24 1013.8 - 0.0
29/06:30pm 26.0 25.4 24.4 91 1.1 E 35 41 19 22 1013.6 - 0.0
29/06:00pm 25.9 25.2 24.1 90 1.2 E 35 41 19 22 1013.2 1013.2 0.0
29/05:30pm 26.1 25.3 24.0 88 1.4 E 35 41 19 22 1013.1 - 0.0
29/05:00pm 26.3 24.9 23.6 85 1.8 E 37 44 20 24 1012.9 - 0.0
29/04:30pm 26.5 25.4 24.2 87 1.6 E 37 43 20 23 1012.9 - 0.0
29/04:00pm 26.2 25.2 23.7 86 1.7 E 35 43 19 23 1012.8 - 0.0
29/03:30pm 26.5 25.5 24.3 88 1.5 ESE 37 43 20 23 1012.9 - 0.0
29/03:00pm 26.3 25.1 24.0 87 1.6 ESE 37 43 20 23 1013.0 1013.0 0.0
29/02:30pm 26.1 25.2 23.8 87 1.6 ESE 35 43 19 23 1013.3 - 0.0
29/02:00pm 26.2 25.1 23.5 85 1.8 ESE 35 43 19 23 1013.6 - 0.0
29/01:30pm 26.1 24.7 23.6 86 1.7 ESE 37 43 20 23 1014.0 - 0.0
29/01:00pm 25.9 23.9 23.2 85 1.8 ESE 39 44 21 24 1014.4 - 0.0
29/12:30pm 26.0 24.8 23.3 85 1.8 ESE 35 43 19 23 1014.9 - 0.0
29/12:00pm 25.9 24.4 22.8 83 2.1 ESE 35 41 19 22 1015.2 1015.2 0.0
29/11:30am 26.1 25.1 22.6 81 2.4 ESE 32 41 17 22 1015.5 - 0.0
29/11:00am 25.6 24.1 22.7 84 2.0 ESE 35 41 19 22 1015.7 - 0.0
29/10:30am 25.8 23.6 22.9 84 2.0 ESE 39 44 21 24 1015.9 - 0.0
29/10:00am 25.3 23.7 23.2 88 1.4 ESE 37 43 20 23 1015.9 - 0.0
29/09:30am 25.3 23.9 23.0 87 1.6 ESE 35 43 19 23 1016.0 - 0.0
29/09:00am 24.7 23.2 22.8 89 1.3 ESE 35 41 19 22 1015.8 1015.8 0.0
29/08:30am 24.3 23.4 22.2 88 1.4 ESE 30 35 16 19 1015.9 - 0.0
29/08:00am 24.0 23.0 22.6 92 0.9 ESE 32 39 17 21 1015.6 - 0.0
29/07:30am 23.7 22.9 22.3 92 0.9 ESE 30 35 16 19 1015.3 - 0.0
29/07:00am 23.8 23.2 22.6 93 0.8 ESE 30 37 16 20 1015.1 - 0.0
29/06:30am 24.3 22.2 22.4 89 1.3 ESE 37 43 20 23 1015.1 - 0.0
29/06:00am 24.2 22.4 22.3 89 1.3 ESE 35 41 19 22 1014.8 1014.8 0.0
29/05:30am 24.1 22.8 22.5 91 1.1 ESE 33 39 18 21 1014.7 - 0.0
29/05:00am 24.0 23.2 22.4 91 1.1 ESE 30 37 16 20 1014.4 - 0.0
29/04:30am 24.1 22.6 22.0 88 1.4 ESE 33 39 18 21 1014.2 - 0.0
29/04:00am 24.6 22.6 22.5 88 1.4 ESE 37 43 20 23 1014.2 - 0.0
29/03:30am 24.5 22.4 22.4 88 1.4 ESE 37 44 20 24 1013.9 - 0.0
29/03:00am 24.5 23.3 22.6 89 1.3 ESE 33 39 18 21 1013.9 1013.9 0.0
29/02:30am 24.6 23.2 23.0 91 1.1 E 35 41 19 22 1014.2 - 0.0
29/02:00am 24.8 23.4 23.6 93 0.8 E 37 44 20 24 1014.2 - 0.0
29/01:30am 24.9 24.0 23.9 94 0.7 E 35 41 19 22 1014.4 - 0.0
29/01:00am 25.0 23.1 23.4 91 1.1 E 39 46 21 25 1014.4 - 0.0
29/12:30am 25.0 24.3 23.6 92 1.0 E 33 41 18 22 1014.4 - 0.0
29/12:00am 25.4 24.9 23.8 91 1.1 E 33 41 18 22 1014.5 1014.5 0.0
 
Date/Time
CST
Temp
°C
App
Temp
°C
Dew
Point
Rel
Hum
%
Delta-T
°C
Wind Press
QNH
hPa
Press
MSL
hPa
Rain
since 9 am
mm
Dir
 
Spd
km/h
Gust
km/h
Spd
kts
Gust
kts
28/11:30pm 25.4 25.0 24.0 92 1.0 E 33 39 18 21 1014.5 - 0.0
28/11:00pm 25.5 24.6 23.9 91 1.1 E 35 39 19 21 1014.6 - 0.0
28/10:30pm 25.7 24.8 23.9 90 1.2 E 35 39 19 21 1014.6 - 0.0
28/10:00pm 25.7 24.3 23.6 88 1.4 E 37 41 20 22 1014.4 - 0.0
28/09:30pm 25.8 24.8 23.7 88 1.4 E 35 41 19 22 1014.4 - 0.0
28/09:00pm 25.8 25.7 24.6 93 0.8 E 33 39 18 21 1014.4 1014.4 0.0
28/08:30pm 25.8 25.4 24.6 93 0.8 E 35 41 19 22 1014.2 - 0.0
28/08:00pm 25.9 25.4 24.5 92 1.0 E 35 41 19 22 1014.0 - 0.0
28/07:30pm 26.0 25.3 24.2 90 1.2 E 35 43 19 23 1013.7 - 0.0
28/07:00pm 25.8 25.1 24.2 91 1.1 E 35 43 19 23 1013.4 - 0.0
28/06:30pm 25.9 25.3 24.3 91 1.1 E 35 43 19 23 1012.9 - 0.0
28/06:00pm 26.1 25.9 24.3 90 1.2 E 33 43 18 23 1012.7 1012.7 0.0
28/05:30pm 25.7 25.1 23.7 89 1.4 E 33 39 18 21 1012.5 - 0.0
28/05:00pm 25.8 24.3 23.5 87 1.6 E 37 43 20 23 1012.3 - 0.0
28/04:30pm 25.8 23.8 23.3 86 1.7 E 39 43 21 23 1012.2 - 0.0
28/04:00pm 25.8 24.6 23.3 86 1.7 E 35 41 19 22 1012.2 - 0.0
28/03:30pm 25.8 24.7 22.9 84 2.0 ESE 33 39 18 21 1012.4 - 0.0
28/03:00pm 26.0 25.1 23.1 84 2.0 ESE 33 37 18 20 1012.7 1012.7 0.0
28/02:30pm 26.6 25.7 22.2 77 3.0 ESE 30 35 16 19 1013.0 - 0.0
28/02:00pm 26.3 25.1 22.2 78 2.8 ESE 32 39 17 21 1013.3 - 0.0
28/01:30pm 26.1 25.1 22.6 81 2.4 ESE 32 37 17 20 1013.9 - 0.0
28/01:00pm 25.6 23.9 21.7 79 2.6 ESE 33 39 18 21 1014.3 - 0.0
28/12:30pm 25.8 24.4 22.3 81 2.3 ESE 33 41 18 22 1014.8 - 0.0
28/12:00pm 25.8 23.8 21.9 79 2.6 ESE 35 43 19 23 1015.2 1015.2 0.0
28/11:30am 25.6 23.8 22.3 82 2.2 ESE 35 43 19 23 1015.6 - 0.0
28/11:00am 26.1 24.4 21.3 75 3.2 SE 32 41 17 22 1015.8 - 0.0
28/10:30am 25.5 24.3 22.6 84 2.0 ESE 33 39 18 21 1015.9 - 0.0
28/10:00am 25.6 23.9 21.7 79 2.6 ESE 33 41 18 22 1016.0 - 0.0
28/09:30am 25.2 23.4 21.5 80 2.5 ESE 33 37 18 20 1015.9 - 0.0
28/09:00am 25.3 23.8 21.0 77 2.8 ESE 30 37 16 20 1015.8 1015.8 0.0
28/08:30am 24.7 24.4 21.8 84 1.9 ESE 26 32 14 17 1015.7 - 0.0
28/08:00am 24.1 24.3 22.0 88 1.4 ESE 24 30 13 16 1015.7 - 0.0
28/07:30am 23.6 23.7 21.9 90 1.1 ESE 24 30 13 16 1015.4 - 0.0
28/07:00am 23.4 23.8 21.8 91 1.1 SE 22 28 12 15 1015.3 - 0.0
28/06:30am 23.4 23.0 21.7 90 1.1 ESE 26 35 14 19 1015.0 - 0.0
28/06:00am 23.6 23.4 22.0 91 1.1 ESE 26 32 14 17 1014.7 1014.7 0.0
28/05:30am 23.7 23.0 21.8 89 1.3 SE 28 35 15 19 1014.4 - 0.0
28/05:00am 24.0 22.3 22.4 91 1.1 ESE 35 41 19 22 1014.3 - 0.0
28/04:30am 24.2 22.2 22.6 91 1.1 ESE 37 46 20 25 1014.1 - 0.0
28/04:00am 24.1 23.1 22.0 88 1.4 SE 30 41 16 22 1014.1 - 0.0
28/03:30am 24.4 22.9 22.1 87 1.5 ESE 33 41 18 22 1014.2 - 0.0
28/03:00am 24.7 22.5 22.2 86 1.7 ESE 37 46 20 25 1014.3 1014.3 0.0
28/02:30am 24.9 23.0 22.8 88 1.4 ESE 37 46 20 25 1014.5 - 0.0
28/02:00am 24.8 24.1 23.6 93 0.8 ESE 33 43 18 23 1014.6 - 0.0
28/01:30am 25.2 25.4 24.7 97 0.3 E 32 37 17 20 1015.0 - 0.0
28/01:00am 25.3 26.5 25.1 99 0.1 E 28 32 15 17 1015.2 - 0.0
28/12:30am 25.4 27.0 25.1 98 0.2 E 26 32 14 17 1015.3 - 0.0
28/12:00am 25.3 26.7 24.8 97 0.3 E 26 32 14 17 1015.4 1015.4 0.0
 
Date/Time
CST
Temp
°C
App
Temp
°C
Dew
Point
Rel
Hum
%
Delta-T
°C
Wind Press
QNH
hPa
Press
MSL
hPa
Rain
since 9 am
mm
Dir
 
Spd
km/h
Gust
km/h
Spd
kts
Gust
kts
27/11:30pm 25.5 27.5 25.2 98 0.2 E 24 28 13 15 1015.5 - 0.0
27/11:00pm 25.7 27.2 25.0 96 0.5 E 26 32 14 17 1015.4 - 0.0
27/10:30pm 25.8 28.0 24.9 95 0.6 E 22 28 12 15 1015.4 - 0.0
27/10:00pm 25.8 27.6 24.8 94 0.7 E 24 28 13 15 1015.3 - 0.0
27/09:30pm 25.8 27.5 24.6 93 0.8 E 24 28 13 15 1015.1 - 0.0
27/09:00pm 25.7 27.2 24.3 92 1.0 E 24 28 13 15 1014.9 1014.9 0.0
27/08:30pm 25.8 26.7 24.0 90 1.2 E 26 30 14 16 1014.5 - 0.0
27/08:00pm 25.9 26.8 23.9 89 1.4 E 26 30 14 16 1014.2 - 0.0
27/07:30pm 26.0 26.2 23.5 86 1.7 E 28 32 15 17 1013.8 - 0.0
27/07:00pm 26.0 26.2 23.5 86 1.7 E 28 32 15 17 1013.5 - 0.0
27/06:30pm 26.2 26.3 23.3 84 2.0 E 28 32 15 17 1013.3 - 0.0
27/06:00pm 26.6 27.2 23.5 83 2.1 E 26 30 14 16 1013.1 1013.1 0.0
27/05:30pm 26.2 26.0 22.7 81 2.4 E 28 32 15 17 1013.0 - 0.0
27/05:00pm 26.6 26.2 23.1 81 2.4 E 30 33 16 18 1012.9 - 0.0
27/04:30pm 26.8 25.7 22.8 79 2.7 E 33 39 18 21 1012.9 - 0.0
27/04:00pm 26.8 26.6 22.8 79 2.7 ESE 28 33 15 18 1013.0 - 0.0
27/03:30pm 26.7 26.3 22.3 77 3.0 ESE 28 33 15 18 1013.0 - 0.0
27/03:00pm 26.6 25.8 22.4 78 2.8 ESE 30 33 16 18 1013.3 1013.3 0.0
27/02:30pm 26.7 25.5 22.3 77 3.0 ESE 32 35 17 19 1013.5 - 0.0
27/02:00pm 26.5 25.1 22.3 78 2.8 ESE 33 37 18 20 1013.9 - 0.0
27/01:30pm 26.8 25.7 22.8 79 2.7 ESE 33 39 18 21 1014.4 - 0.0
27/01:00pm 26.6 24.9 22.4 78 2.8 ESE 35 39 19 21 1014.9 - 0.0
27/12:30pm 26.7 25.3 22.3 77 3.0 ESE 33 39 18 21 1015.3 - 0.0
27/12:00pm 26.0 24.5 22.1 79 2.6 ESE 33 39 18 21 1015.9 1015.9 0.0
27/11:30am 25.8 24.4 22.3 81 2.3 ESE 33 41 18 22 1016.2 - 0.0
27/11:00am 25.7 23.9 22.2 81 2.3 ESE 35 41 19 22 1016.6 - 0.0
27/10:30am 25.3 23.8 22.0 82 2.2 ESE 33 39 18 21 1016.8 - 0.0
27/10:00am 25.3 23.6 22.4 84 1.9 ESE 35 41 19 22 1016.9 - 0.0
27/09:30am 25.2 23.7 22.1 83 2.1 ESE 33 39 18 21 1016.9 - 0.0
27/09:00am 25.2 24.3 22.1 83 2.1 ESE 30 35 16 19 1016.7 1016.7 0.0
27/08:30am 25.1 24.3 22.4 85 1.8 ESE 30 37 16 20 1016.5 - 0.0
27/08:00am 24.5 23.1 22.0 86 1.7 ESE 32 37 17 20 1016.4 - 0.0
27/07:30am 24.0 23.6 22.4 91 1.1 ESE 28 35 15 19 1016.2 - 0.0
27/07:00am 23.6 23.7 21.9 90 1.1 SE 24 30 13 16 1015.8 - 0.0
27/06:30am 23.5 23.5 21.6 89 1.3 ESE 24 32 13 17 1015.5 - 0.0
27/06:00am 23.5 23.8 21.6 89 1.3 SE 22 30 12 16 1015.3 1015.3 0.0
27/05:30am 24.0 22.6 21.9 88 1.4 ESE 32 39 17 21 1015.2 - 0.0
27/05:00am 23.8 22.6 21.5 87 1.5 ESE 30 39 16 21 1015.1 - 0.0
27/04:30am 24.2 23.3 22.1 88 1.4 ESE 30 37 16 20 1014.9 - 0.0
27/04:00am 24.0 23.0 21.9 88 1.4 ESE 30 41 16 22 1014.9 - 0.0
27/03:30am 24.1 23.1 22.0 88 1.4 ESE 30 35 16 19 1015.0 - 0.0
27/03:00am 24.3 24.1 22.7 91 1.1 ESE 28 37 15 20 1015.2 1015.2 0.0
27/02:30am 24.3 24.0 23.3 94 0.7 ESE 30 35 16 19 1015.4 - 0.0
27/02:00am 24.6 24.0 23.4 93 0.8 ESE 32 39 17 21 1015.6 - 0.0
27/01:30am 24.9 24.3 23.7 93 0.8 ESE 33 37 18 20 1015.8 - 0.0
27/01:00am 24.7 23.9 23.1 91 1.1 ESE 32 39 17 21 1016.0 - 0.0
27/12:30am 25.0 23.7 23.2 90 1.2 E 35 41 19 22 1016.2 - 0.0
27/12:00am 25.3 24.5 23.4 89 1.3 E 33 41 18 22 1016.4 1016.4 0.0
 
Date/Time
CST
Temp
°C
App
Temp
°C
Dew
Point
Rel
Hum
%
Delta-T
°C
Wind Press
QNH
hPa
Press
MSL
hPa
Rain
since 9 am
mm
Dir
 
Spd
km/h
Gust
km/h
Spd
kts
Gust
kts
26/11:30pm 25.4 24.2 23.3 88 1.4 E 35 41 19 22 1016.4 - 0.0
26/11:00pm 25.2 23.6 23.3 89 1.3 E 37 44 20 24 1016.5 - 0.0
26/10:30pm 25.5 24.0 24.1 92 1.0 E 39 46 21 25 1016.5 - 0.0

Other Formats:

Comma delimited format used in spreadsheet applications
http://www.bom.gov.au/fwo/IDD60801/IDD60801.94135.axf

JavaScript Object Notation format (JSON) in row-major order
http://www.bom.gov.au/fwo/IDD60801/IDD60801.94135.json